Potash, Louisiana
Current Conditions -  °F | °C
As of 3:48 PM on Saturday 25 Oct 2014 (Local Time) from K1B7 Reporting Station
Clear Clear  
Wind Chill: 73°   Ceiling: Unl
Heat Index: 73°   Visibility: 10mi
Dew Point: 57°   Wind: 8mph
Humidity: 57%   Direction: 20°NNE
Pressure: 30.07"   Gusts: NA
Location:  29.4927°N, 89.8165°W
Report Text: K1B7 252048Z 02007KT 10SM SKC 23/14 A3007
Loading
Personal Weather Stations






























Interactive Weather Map
Tropical Storm Tracking
New forecast layout! Learn more

10-Day Weather Forecast

Advertisements
Track Severe Weather on mobile